Fruitland, Idaho
Current Conditions -  °F | °C
As of 2:53 AM on Saturday 25 Oct 2014 (Local Time) from KONO Reporting Station
Haze Haze  
Wind Chill: 44°   Ceiling: Unl
Heat Index: 44°   Visibility: 6mi
Dew Point: 42°   Wind: 3mph
Humidity: 93%   Direction: 230°SW
Pressure: 29.92"   Gusts: NA
Location:  44.01°N, 116.92°W
Report Text: KONO 250853Z AUTO 23003KT 6SM BR CLR 07/06 A2992 RMK AO2 SLP134 T00670056 58010
Loading
Personal Weather Stations






























Interactive Weather Map
Tropical Storm Tracking
New forecast layout! Learn more

10-Day Weather Forecast

Advertisements
Track Severe Weather on mobile